sensor_id;sensor_type;location;lat;lon;timestamp;P1;durP1;ratioP1;P2;durP2;ratioP2
17753;SDS011;8999;48.994;9.150;2022-07-31T00:00:04;5.03;;;4.07;;
17753;SDS011;8999;48.994;9.150;2022-07-31T00:02:39;3.83;;;3.40;;
17753;SDS011;8999;48.994;9.150;2022-07-31T00:05:11;4.28;;;3.35;;
17753;SDS011;8999;48.994;9.150;2022-07-31T00:07:43;3.78;;;2.80;;
17753;SDS011;8999;48.994;9.150;2022-07-31T00:10:16;3.53;;;2.90;;
17753;SDS011;8999;48.994;9.150;2022-07-31T00:12:47;4.95;;;2.83;;
17753;SDS011;8999;48.994;9.150;2022-07-31T00:15:19;3.35;;;2.80;;
17753;SDS011;8999;48.994;9.150;2022-07-31T00:17:51;3.65;;;2.80;;
17753;SDS011;8999;48.994;9.150;2022-07-31T00:20:23;2.80;;;2.60;;
17753;SDS011;8999;48.994;9.150;2022-07-31T00:22:54;5.68;;;3.03;;
17753;SDS011;8999;48.994;9.150;2022-07-31T00:25:27;4.40;;;2.80;;
17753;SDS011;8999;48.994;9.150;2022-07-31T00:27:59;3.90;;;3.00;;
17753;SDS011;8999;48.994;9.150;2022-07-31T00:30:31;5.43;;;2.90;;
17753;SDS011;8999;48.994;9.150;2022-07-31T00:33:03;4.35;;;2.78;;
17753;SDS011;8999;48.994;9.150;2022-07-31T00:35:34;3.50;;;2.80;;
17753;SDS011;8999;48.994;9.150;2022-07-31T00:38:06;4.97;;;3.20;;
17753;SDS011;8999;48.994;9.150;2022-07-31T00:40:45;3.42;;;2.80;;
17753;SDS011;8999;48.994;9.150;2022-07-31T00:43:17;4.07;;;3.10;;
17753;SDS011;8999;48.994;9.150;2022-07-31T00:45:49;3.88;;;3.17;;
17753;SDS011;8999;48.994;9.150;2022-07-31T00:48:22;3.58;;;3.03;;
17753;SDS011;8999;48.994;9.150;2022-07-31T00:50:54;5.15;;;3.13;;
17753;SDS011;8999;48.994;9.150;2022-07-31T00:53:26;4.18;;;3.20;;
17753;SDS011;8999;48.994;9.150;2022-07-31T00:55:59;4.63;;;2.70;;
17753;SDS011;8999;48.994;9.150;2022-07-31T00:58:30;5.13;;;3.03;;
17753;SDS011;8999;48.994;9.150;2022-07-31T01:01:02;3.08;;;2.78;;
17753;SDS011;8999;48.994;9.150;2022-07-31T01:03:34;5.22;;;3.20;;
17753;SDS011;8999;48.994;9.150;2022-07-31T01:06:05;3.90;;;2.70;;
17753;SDS011;8999;48.994;9.150;2022-07-31T01:08:37;4.18;;;2.53;;
17753;SDS011;8999;48.994;9.150;2022-07-31T01:11:11;2.97;;;2.63;;
17753;SDS011;8999;48.994;9.150;2022-07-31T01:13:47;3.50;;;3.20;;
17753;SDS011;8999;48.994;9.150;2022-07-31T01:16:21;4.88;;;2.97;;
17753;SDS011;8999;48.994;9.150;2022-07-31T01:18:54;5.32;;;3.15;;
17753;SDS011;8999;48.994;9.150;2022-07-31T01:21:28;4.88;;;2.70;;
17753;SDS011;8999;48.994;9.150;2022-07-31T01:24:07;3.63;;;3.00;;
17753;SDS011;8999;48.994;9.150;2022-07-31T01:26:46;3.95;;;3.10;;
17753;SDS011;8999;48.994;9.150;2022-07-31T01:29:23;4.47;;;2.70;;
17753;SDS011;8999;48.994;9.150;2022-07-31T01:31:57;4.05;;;2.95;;
17753;SDS011;8999;48.994;9.150;2022-07-31T01:34:32;3.33;;;3.03;;
17753;SDS011;8999;48.994;9.150;2022-07-31T01:37:11;5.38;;;3.25;;
17753;SDS011;8999;48.994;9.150;2022-07-31T01:39:45;3.65;;;3.10;;
17753;SDS011;8999;48.994;9.150;2022-07-31T01:42:20;3.40;;;3.10;;
17753;SDS011;8999;48.994;9.150;2022-07-31T01:44:57;4.30;;;3.25;;
17753;SDS011;8999;48.994;9.150;2022-07-31T01:47:30;4.07;;;3.35;;
17753;SDS011;8999;48.994;9.150;2022-07-31T01:50:03;5.85;;;3.60;;
17753;SDS011;8999;48.994;9.150;2022-07-31T01:52:36;4.13;;;3.63;;
17753;SDS011;8999;48.994;9.150;2022-07-31T01:55:09;5.70;;;3.30;;
17753;SDS011;8999;48.994;9.150;2022-07-31T01:57:42;4.32;;;3.50;;
17753;SDS011;8999;48.994;9.150;2022-07-31T02:00:17;3.90;;;3.40;;
17753;SDS011;8999;48.994;9.150;2022-07-31T02:02:48;5.35;;;3.80;;
17753;SDS011;8999;48.994;9.150;2022-07-31T02:05:21;5.00;;;3.95;;
17753;SDS011;8999;48.994;9.150;2022-07-31T02:07:54;5.00;;;3.78;;
17753;SDS011;8999;48.994;9.150;2022-07-31T02:10:26;4.00;;;3.58;;
17753;SDS011;8999;48.994;9.150;2022-07-31T02:12:58;3.97;;;3.58;;
17753;SDS011;8999;48.994;9.150;2022-07-31T02:15:33;3.70;;;3.35;;
17753;SDS011;8999;48.994;9.150;2022-07-31T02:18:05;3.65;;;3.35;;
17753;SDS011;8999;48.994;9.150;2022-07-31T02:20:37;4.43;;;3.72;;
17753;SDS011;8999;48.994;9.150;2022-07-31T02:23:09;5.20;;;3.42;;
17753;SDS011;8999;48.994;9.150;2022-07-31T02:25:41;4.03;;;3.60;;
17753;SDS011;8999;48.994;9.150;2022-07-31T02:28:14;3.60;;;3.30;;
17753;SDS011;8999;48.994;9.150;2022-07-31T02:30:50;4.22;;;3.83;;
17753;SDS011;8999;48.994;9.150;2022-07-31T02:33:23;5.68;;;4.18;;
17753;SDS011;8999;48.994;9.150;2022-07-31T02:35:56;5.07;;;3.72;;
17753;SDS011;8999;48.994;9.150;2022-07-31T02:38:28;8.85;;;3.80;;
17753;SDS011;8999;48.994;9.150;2022-07-31T02:41:03;4.97;;;3.42;;
17753;SDS011;8999;48.994;9.150;2022-07-31T02:43:35;4.13;;;3.63;;
17753;SDS011;8999;48.994;9.150;2022-07-31T02:46:08;6.90;;;4.38;;
17753;SDS011;8999;48.994;9.150;2022-07-31T02:48:41;5.65;;;3.90;;
17753;SDS011;8999;48.994;9.150;2022-07-31T02:51:13;5.65;;;3.97;;
17753;SDS011;8999;48.994;9.150;2022-07-31T02:53:44;4.95;;;3.90;;
17753;SDS011;8999;48.994;9.150;2022-07-31T02:56:16;4.72;;;4.10;;
17753;SDS011;8999;48.994;9.150;2022-07-31T02:58:48;4.60;;;4.15;;
17753;SDS011;8999;48.994;9.150;2022-07-31T03:01:21;5.75;;;4.30;;
17753;SDS011;8999;48.994;9.150;2022-07-31T03:03:53;5.00;;;4.50;;
17753;SDS011;8999;48.994;9.150;2022-07-31T03:06:24;5.65;;;3.95;;
17753;SDS011;8999;48.994;9.150;2022-07-31T03:08:57;4.57;;;4.15;;
17753;SDS011;8999;48.994;9.150;2022-07-31T03:11:28;4.97;;;4.25;;
17753;SDS011;8999;48.994;9.150;2022-07-31T03:14:00;6.18;;;4.88;;
17753;SDS011;8999;48.994;9.150;2022-07-31T03:16:33;5.93;;;4.72;;
17753;SDS011;8999;48.994;9.150;2022-07-31T03:19:06;4.70;;;4.25;;
17753;SDS011;8999;48.994;9.150;2022-07-31T03:21:38;4.82;;;4.32;;
17753;SDS011;8999;48.994;9.150;2022-07-31T03:24:10;4.80;;;4.30;;
17753;SDS011;8999;48.994;9.150;2022-07-31T03:26:42;6.45;;;4.55;;
17753;SDS011;8999;48.994;9.150;2022-07-31T03:29:13;5.50;;;4.50;;
17753;SDS011;8999;48.994;9.150;2022-07-31T03:31:46;4.60;;;4.20;;
17753;SDS011;8999;48.994;9.150;2022-07-31T03:34:18;5.53;;;4.32;;
17753;SDS011;8999;48.994;9.150;2022-07-31T03:36:49;4.93;;;4.50;;
17753;SDS011;8999;48.994;9.150;2022-07-31T03:39:21;5.70;;;5.00;;
17753;SDS011;8999;48.994;9.150;2022-07-31T03:41:53;7.30;;;4.35;;
17753;SDS011;8999;48.994;9.150;2022-07-31T03:44:25;11.48;;;4.50;;
17753;SDS011;8999;48.994;9.150;2022-07-31T03:46:58;7.25;;;4.80;;
17753;SDS011;8999;48.994;9.150;2022-07-31T03:49:30;6.00;;;4.55;;
17753;SDS011;8999;48.994;9.150;2022-07-31T03:52:03;6.95;;;4.13;;
17753;SDS011;8999;48.994;9.150;2022-07-31T03:54:34;6.57;;;4.25;;
17753;SDS011;8999;48.994;9.150;2022-07-31T03:57:07;7.35;;;4.38;;
17753;SDS011;8999;48.994;9.150;2022-07-31T03:59:40;8.30;;;4.97;;
17753;SDS011;8999;48.994;9.150;2022-07-31T04:02:14;5.57;;;4.30;;
17753;SDS011;8999;48.994;9.150;2022-07-31T04:04:45;5.10;;;4.60;;
17753;SDS011;8999;48.994;9.150;2022-07-31T04:07:17;6.28;;;4.40;;
17753;SDS011;8999;48.994;9.150;2022-07-31T04:09:49;4.95;;;4.07;;
17753;SDS011;8999;48.994;9.150;2022-07-31T04:12:21;7.38;;;4.63;;
17753;SDS011;8999;48.994;9.150;2022-07-31T04:14:53;5.50;;;4.63;;
17753;SDS011;8999;48.994;9.150;2022-07-31T04:17:26;7.45;;;4.57;;
17753;SDS011;8999;48.994;9.150;2022-07-31T04:19:58;5.57;;;4.45;;
17753;SDS011;8999;48.994;9.150;2022-07-31T04:22:29;6.20;;;4.95;;
17753;SDS011;8999;48.994;9.150;2022-07-31T04:25:01;5.40;;;4.47;;
17753;SDS011;8999;48.994;9.150;2022-07-31T04:27:33;5.25;;;4.40;;
17753;SDS011;8999;48.994;9.150;2022-07-31T04:30:06;5.07;;;4.53;;
17753;SDS011;8999;48.994;9.150;2022-07-31T04:32:39;5.28;;;4.45;;
17753;SDS011;8999;48.994;9.150;2022-07-31T04:35:11;6.57;;;4.82;;
17753;SDS011;8999;48.994;9.150;2022-07-31T04:37:43;7.30;;;5.15;;
17753;SDS011;8999;48.994;9.150;2022-07-31T04:40:15;6.10;;;4.80;;
17753;SDS011;8999;48.994;9.150;2022-07-31T04:42:47;5.25;;;4.72;;
17753;SDS011;8999;48.994;9.150;2022-07-31T04:45:18;8.82;;;5.43;;
17753;SDS011;8999;48.994;9.150;2022-07-31T04:47:51;5.68;;;4.70;;
17753;SDS011;8999;48.994;9.150;2022-07-31T04:50:23;6.43;;;5.35;;
17753;SDS011;8999;48.994;9.150;2022-07-31T04:52:54;6.82;;;5.38;;
17753;SDS011;8999;48.994;9.150;2022-07-31T04:55:26;7.65;;;5.07;;
17753;SDS011;8999;48.994;9.150;2022-07-31T04:57:57;7.03;;;5.20;;
17753;SDS011;8999;48.994;9.150;2022-07-31T05:00:29;6.30;;;4.80;;
17753;SDS011;8999;48.994;9.150;2022-07-31T05:03:02;6.60;;;4.90;;
17753;SDS011;8999;48.994;9.150;2022-07-31T05:05:34;6.88;;;5.45;;
17753;SDS011;8999;48.994;9.150;2022-07-31T05:08:05;6.05;;;5.35;;
17753;SDS011;8999;48.994;9.150;2022-07-31T05:10:37;6.90;;;4.75;;
17753;SDS011;8999;48.994;9.150;2022-07-31T05:13:26;5.00;;;4.38;;
17753;SDS011;8999;48.994;9.150;2022-07-31T05:15:57;5.60;;;4.22;;
17753;SDS011;8999;48.994;9.150;2022-07-31T05:18:30;5.45;;;4.55;;
17753;SDS011;8999;48.994;9.150;2022-07-31T05:21:02;5.55;;;4.38;;
17753;SDS011;8999;48.994;9.150;2022-07-31T05:23:34;6.00;;;4.30;;
17753;SDS011;8999;48.994;9.150;2022-07-31T05:26:05;5.40;;;3.90;;
17753;SDS011;8999;48.994;9.150;2022-07-31T05:28:37;4.97;;;4.43;;
17753;SDS011;8999;48.994;9.150;2022-07-31T05:31:09;4.97;;;4.47;;
17753;SDS011;8999;48.994;9.150;2022-07-31T05:33:43;5.45;;;4.85;;
17753;SDS011;8999;48.994;9.150;2022-07-31T05:36:15;7.80;;;5.18;;
17753;SDS011;8999;48.994;9.150;2022-07-31T05:38:47;6.88;;;5.68;;
17753;SDS011;8999;48.994;9.150;2022-07-31T05:41:18;5.88;;;5.28;;
17753;SDS011;8999;48.994;9.150;2022-07-31T05:43:50;8.45;;;5.15;;
17753;SDS011;8999;48.994;9.150;2022-07-31T05:46:22;6.50;;;5.00;;
17753;SDS011;8999;48.994;9.150;2022-07-31T05:48:55;5.53;;;4.95;;
17753;SDS011;8999;48.994;9.150;2022-07-31T05:51:26;6.65;;;4.88;;
17753;SDS011;8999;48.994;9.150;2022-07-31T05:53:58;5.70;;;5.03;;
17753;SDS011;8999;48.994;9.150;2022-07-31T05:56:29;6.30;;;4.80;;
17753;SDS011;8999;48.994;9.150;2022-07-31T05:59:01;5.30;;;4.80;;
17753;SDS011;8999;48.994;9.150;2022-07-31T06:01:33;5.40;;;4.38;;
17753;SDS011;8999;48.994;9.150;2022-07-31T06:04:06;8.77;;;5.03;;
17753;SDS011;8999;48.994;9.150;2022-07-31T06:06:37;5.18;;;4.22;;
17753;SDS011;8999;48.994;9.150;2022-07-31T06:09:09;5.47;;;4.60;;
17753;SDS011;8999;48.994;9.150;2022-07-31T06:11:40;5.38;;;3.92;;
17753;SDS011;8999;48.994;9.150;2022-07-31T06:14:12;6.28;;;5.00;;
17753;SDS011;8999;48.994;9.150;2022-07-31T06:16:43;6.88;;;4.60;;
17753;SDS011;8999;48.994;9.150;2022-07-31T06:19:18;5.97;;;4.65;;
17753;SDS011;8999;48.994;9.150;2022-07-31T06:21:50;5.32;;;4.28;;
17753;SDS011;8999;48.994;9.150;2022-07-31T06:24:21;6.82;;;4.32;;
17753;SDS011;8999;48.994;9.150;2022-07-31T06:26:55;6.85;;;4.55;;
17753;SDS011;8999;48.994;9.150;2022-07-31T06:29:27;5.10;;;4.53;;
17753;SDS011;8999;48.994;9.150;2022-07-31T06:31:58;7.20;;;4.90;;
17753;SDS011;8999;48.994;9.150;2022-07-31T06:34:31;5.07;;;4.53;;
17753;SDS011;8999;48.994;9.150;2022-07-31T06:37:03;5.40;;;4.90;;
17753;SDS011;8999;48.994;9.150;2022-07-31T06:39:34;5.05;;;4.30;;
17753;SDS011;8999;48.994;9.150;2022-07-31T06:42:06;6.95;;;4.50;;
17753;SDS011;8999;48.994;9.150;2022-07-31T06:44:38;5.35;;;4.47;;
17753;SDS011;8999;48.994;9.150;2022-07-31T06:47:10;5.38;;;4.70;;
17753;SDS011;8999;48.994;9.150;2022-07-31T06:49:43;6.15;;;4.53;;
17753;SDS011;8999;48.994;9.150;2022-07-31T06:52:14;4.75;;;4.30;;
17753;SDS011;8999;48.994;9.150;2022-07-31T06:54:46;9.02;;;4.32;;
17753;SDS011;8999;48.994;9.150;2022-07-31T06:57:18;5.68;;;4.40;;
17753;SDS011;8999;48.994;9.150;2022-07-31T06:59:49;10.93;;;4.63;;
17753;SDS011;8999;48.994;9.150;2022-07-31T07:02:21;5.72;;;4.30;;
17753;SDS011;8999;48.994;9.150;2022-07-31T07:04:54;5.20;;;4.68;;
17753;SDS011;8999;48.994;9.150;2022-07-31T07:07:25;4.43;;;3.97;;
17753;SDS011;8999;48.994;9.150;2022-07-31T07:09:57;7.95;;;4.18;;
17753;SDS011;8999;48.994;9.150;2022-07-31T07:12:29;6.45;;;4.65;;
17753;SDS011;8999;48.994;9.150;2022-07-31T07:15:00;5.03;;;4.35;;
17753;SDS011;8999;48.994;9.150;2022-07-31T07:17:32;5.40;;;4.18;;
17753;SDS011;8999;48.994;9.150;2022-07-31T07:20:05;7.18;;;4.03;;
17753;SDS011;8999;48.994;9.150;2022-07-31T07:22:38;6.22;;;4.30;;
17753;SDS011;8999;48.994;9.150;2022-07-31T07:25:09;7.15;;;4.82;;
17753;SDS011;8999;48.994;9.150;2022-07-31T07:27:41;6.20;;;3.65;;
17753;SDS011;8999;48.994;9.150;2022-07-31T07:30:13;4.75;;;3.55;;
17753;SDS011;8999;48.994;9.150;2022-07-31T07:32:45;4.55;;;4.03;;
17753;SDS011;8999;48.994;9.150;2022-07-31T07:35:18;4.50;;;4.05;;
17753;SDS011;8999;48.994;9.150;2022-07-31T07:37:49;4.53;;;3.67;;
17753;SDS011;8999;48.994;9.150;2022-07-31T07:40:21;4.80;;;3.65;;
17753;SDS011;8999;48.994;9.150;2022-07-31T07:42:53;4.30;;;3.25;;
17753;SDS011;8999;48.994;9.150;2022-07-31T07:45:25;6.07;;;3.78;;
17753;SDS011;8999;48.994;9.150;2022-07-31T07:47:56;6.05;;;3.40;;
17753;SDS011;8999;48.994;9.150;2022-07-31T07:50:29;5.50;;;3.38;;
17753;SDS011;8999;48.994;9.150;2022-07-31T07:53:01;4.70;;;3.50;;
17753;SDS011;8999;48.994;9.150;2022-07-31T07:55:33;4.28;;;3.70;;
17753;SDS011;8999;48.994;9.150;2022-07-31T07:58:05;5.32;;;3.53;;
17753;SDS011;8999;48.994;9.150;2022-07-31T08:00:42;4.22;;;3.40;;
17753;SDS011;8999;48.994;9.150;2022-07-31T08:03:16;4.88;;;3.55;;
17753;SDS011;8999;48.994;9.150;2022-07-31T08:05:49;4.97;;;3.15;;
17753;SDS011;8999;48.994;9.150;2022-07-31T08:08:20;3.75;;;3.05;;
17753;SDS011;8999;48.994;9.150;2022-07-31T08:10:52;6.13;;;3.00;;
17753;SDS011;8999;48.994;9.150;2022-07-31T08:13:24;3.70;;;3.30;;
17753;SDS011;8999;48.994;9.150;2022-07-31T08:15:55;3.45;;;2.67;;
17753;SDS011;8999;48.994;9.150;2022-07-31T08:18:27;4.97;;;2.88;;
17753;SDS011;8999;48.994;9.150;2022-07-31T08:21:00;3.15;;;2.85;;
17753;SDS011;8999;48.994;9.150;2022-07-31T08:23:32;4.20;;;2.88;;
17753;SDS011;8999;48.994;9.150;2022-07-31T08:26:03;3.42;;;3.03;;
17753;SDS011;8999;48.994;9.150;2022-07-31T08:28:37;5.18;;;3.17;;
17753;SDS011;8999;48.994;9.150;2022-07-31T08:31:08;3.65;;;2.75;;
17753;SDS011;8999;48.994;9.150;2022-07-31T08:33:40;4.70;;;3.28;;
17753;SDS011;8999;48.994;9.150;2022-07-31T08:36:13;2.85;;;2.50;;
17753;SDS011;8999;48.994;9.150;2022-07-31T08:38:45;4.75;;;2.42;;
17753;SDS011;8999;48.994;9.150;2022-07-31T08:41:16;2.80;;;2.33;;
17753;SDS011;8999;48.994;9.150;2022-07-31T08:43:48;3.75;;;2.55;;
17753;SDS011;8999;48.994;9.150;2022-07-31T08:46:20;2.92;;;2.55;;
17753;SDS011;8999;48.994;9.150;2022-07-31T08:48:52;3.42;;;2.60;;
17753;SDS011;8999;48.994;9.150;2022-07-31T08:51:28;5.40;;;2.20;;
17753;SDS011;8999;48.994;9.150;2022-07-31T08:54:01;4.45;;;2.50;;
17753;SDS011;8999;48.994;9.150;2022-07-31T08:56:33;3.20;;;2.38;;
17753;SDS011;8999;48.994;9.150;2022-07-31T08:59:05;2.47;;;1.90;;
17753;SDS011;8999;48.994;9.150;2022-07-31T09:01:37;4.28;;;1.90;;
17753;SDS011;8999;48.994;9.150;2022-07-31T09:04:09;4.95;;;1.90;;
17753;SDS011;8999;48.994;9.150;2022-07-31T09:06:43;5.47;;;2.22;;
17753;SDS011;8999;48.994;9.150;2022-07-31T09:09:14;2.35;;;1.60;;
17753;SDS011;8999;48.994;9.150;2022-07-31T09:11:47;2.97;;;1.90;;
17753;SDS011;8999;48.994;9.150;2022-07-31T09:14:25;4.40;;;1.80;;
17753;SDS011;8999;48.994;9.150;2022-07-31T09:16:58;4.05;;;2.03;;
17753;SDS011;8999;48.994;9.150;2022-07-31T09:19:37;3.22;;;2.03;;
17753;SDS011;8999;48.994;9.150;2022-07-31T09:22:19;2.20;;;1.83;;
17753;SDS011;8999;48.994;9.150;2022-07-31T09:24:53;5.78;;;2.10;;
17753;SDS011;8999;48.994;9.150;2022-07-31T09:27:27;2.92;;;1.85;;
17753;SDS011;8999;48.994;9.150;2022-07-31T09:29:58;2.20;;;1.83;;
17753;SDS011;8999;48.994;9.150;2022-07-31T09:32:31;3.92;;;1.60;;
17753;SDS011;8999;48.994;9.150;2022-07-31T09:35:06;3.78;;;2.17;;
17753;SDS011;8999;48.994;9.150;2022-07-31T09:37:44;3.83;;;1.73;;
17753;SDS011;8999;48.994;9.150;2022-07-31T09:40:16;2.58;;;1.63;;
17753;SDS011;8999;48.994;9.150;2022-07-31T09:42:48;1.83;;;1.48;;
17753;SDS011;8999;48.994;9.150;2022-07-31T09:45:20;3.10;;;1.98;;
17753;SDS011;8999;48.994;9.150;2022-07-31T09:48:04;3.50;;;2.00;;
17753;SDS011;8999;48.994;9.150;2022-07-31T09:50:37;1.85;;;1.58;;
17753;SDS011;8999;48.994;9.150;2022-07-31T09:53:10;3.78;;;1.80;;
17753;SDS011;8999;48.994;9.150;2022-07-31T09:55:47;1.77;;;1.60;;
17753;SDS011;8999;48.994;9.150;2022-07-31T09:58:20;2.90;;;1.80;;
17753;SDS011;8999;48.994;9.150;2022-07-31T10:00:52;1.73;;;1.48;;
17753;SDS011;8999;48.994;9.150;2022-07-31T10:03:25;2.13;;;1.85;;
17753;SDS011;8999;48.994;9.150;2022-07-31T10:05:57;2.05;;;1.70;;
17753;SDS011;8999;48.994;9.150;2022-07-31T10:08:30;3.38;;;1.95;;
17753;SDS011;8999;48.994;9.150;2022-07-31T10:11:04;4.07;;;1.52;;
17753;SDS011;8999;48.994;9.150;2022-07-31T10:13:37;1.50;;;1.40;;
17753;SDS011;8999;48.994;9.150;2022-07-31T10:16:10;2.10;;;1.60;;
17753;SDS011;8999;48.994;9.150;2022-07-31T10:18:45;3.15;;;1.55;;
17753;SDS011;8999;48.994;9.150;2022-07-31T10:21:18;2.03;;;1.42;;
17753;SDS011;8999;48.994;9.150;2022-07-31T10:23:55;2.63;;;1.50;;
17753;SDS011;8999;48.994;9.150;2022-07-31T10:26:29;4.32;;;1.40;;
17753;SDS011;8999;48.994;9.150;2022-07-31T10:29:01;2.38;;;1.35;;
17753;SDS011;8999;48.994;9.150;2022-07-31T10:31:33;1.92;;;1.60;;
17753;SDS011;8999;48.994;9.150;2022-07-31T10:34:04;1.90;;;1.30;;
17753;SDS011;8999;48.994;9.150;2022-07-31T10:36:36;3.03;;;1.33;;
17753;SDS011;8999;48.994;9.150;2022-07-31T10:39:13;5.15;;;2.92;;
17753;SDS011;8999;48.994;9.150;2022-07-31T10:41:48;2.60;;;1.73;;
17753;SDS011;8999;48.994;9.150;2022-07-31T10:44:28;1.88;;;1.50;;
17753;SDS011;8999;48.994;9.150;2022-07-31T10:47:10;3.13;;;1.65;;
17753;SDS011;8999;48.994;9.150;2022-07-31T10:49:43;2.65;;;1.30;;
17753;SDS011;8999;48.994;9.150;2022-07-31T10:52:25;1.65;;;1.27;;
17753;SDS011;8999;48.994;9.150;2022-07-31T10:54:59;2.67;;;1.48;;
17753;SDS011;8999;48.994;9.150;2022-07-31T10:57:32;2.75;;;1.83;;
17753;SDS011;8999;48.994;9.150;2022-07-31T11:00:08;3.20;;;1.63;;
17753;SDS011;8999;48.994;9.150;2022-07-31T11:02:41;2.15;;;1.30;;
17753;SDS011;8999;48.994;9.150;2022-07-31T11:05:14;4.68;;;1.58;;
17753;SDS011;8999;48.994;9.150;2022-07-31T11:07:58;4.15;;;1.38;;
17753;SDS011;8999;48.994;9.150;2022-07-31T11:10:32;1.88;;;1.20;;
17753;SDS011;8999;48.994;9.150;2022-07-31T11:13:04;2.35;;;1.17;;
17753;SDS011;8999;48.994;9.150;2022-07-31T11:15:37;4.05;;;1.48;;
17753;SDS011;8999;48.994;9.150;2022-07-31T11:18:12;2.50;;;1.27;;
17753;SDS011;8999;48.994;9.150;2022-07-31T11:20:44;2.05;;;1.40;;
17753;SDS011;8999;48.994;9.150;2022-07-31T11:23:17;2.42;;;1.23;;
17753;SDS011;8999;48.994;9.150;2022-07-31T11:25:50;1.48;;;1.30;;
17753;SDS011;8999;48.994;9.150;2022-07-31T11:28:21;1.75;;;1.30;;
17753;SDS011;8999;48.994;9.150;2022-07-31T11:30:54;1.38;;;1.20;;
17753;SDS011;8999;48.994;9.150;2022-07-31T11:33:26;2.47;;;1.30;;
17753;SDS011;8999;48.994;9.150;2022-07-31T11:36:06;4.80;;;1.33;;
17753;SDS011;8999;48.994;9.150;2022-07-31T11:38:39;1.63;;;1.35;;
17753;SDS011;8999;48.994;9.150;2022-07-31T11:41:13;3.75;;;1.45;;
17753;SDS011;8999;48.994;9.150;2022-07-31T11:43:46;4.45;;;1.45;;
17753;SDS011;8999;48.994;9.150;2022-07-31T11:46:22;3.97;;;1.45;;
17753;SDS011;8999;48.994;9.150;2022-07-31T11:48:55;4.53;;;1.30;;
17753;SDS011;8999;48.994;9.150;2022-07-31T11:51:27;1.58;;;1.40;;
17753;SDS011;8999;48.994;9.150;2022-07-31T11:54:00;3.00;;;1.40;;
17753;SDS011;8999;48.994;9.150;2022-07-31T11:56:32;1.85;;;1.40;;
17753;SDS011;8999;48.994;9.150;2022-07-31T11:59:04;7.82;;;1.60;;
17753;SDS011;8999;48.994;9.150;2022-07-31T12:01:36;2.78;;;1.20;;
17753;SDS011;8999;48.994;9.150;2022-07-31T12:04:08;2.92;;;1.38;;
17753;SDS011;8999;48.994;9.150;2022-07-31T12:06:39;2.63;;;1.40;;
17753;SDS011;8999;48.994;9.150;2022-07-31T12:09:11;7.40;;;3.97;;
17753;SDS011;8999;48.994;9.150;2022-07-31T12:11:44;2.40;;;1.55;;
17753;SDS011;8999;48.994;9.150;2022-07-31T12:14:25;2.58;;;1.40;;
17753;SDS011;8999;48.994;9.150;2022-07-31T12:16:58;2.20;;;1.30;;
17753;SDS011;8999;48.994;9.150;2022-07-31T12:19:31;2.65;;;1.70;;
17753;SDS011;8999;48.994;9.150;2022-07-31T12:22:11;2.33;;;1.63;;
17753;SDS011;8999;48.994;9.150;2022-07-31T12:24:43;4.13;;;1.60;;
17753;SDS011;8999;48.994;9.150;2022-07-31T12:27:16;2.85;;;1.40;;
17753;SDS011;8999;48.994;9.150;2022-07-31T12:29:48;5.10;;;1.50;;
17753;SDS011;8999;48.994;9.150;2022-07-31T12:32:23;3.30;;;1.40;;
17753;SDS011;8999;48.994;9.150;2022-07-31T12:35:02;1.60;;;1.50;;
17753;SDS011;8999;48.994;9.150;2022-07-31T12:37:41;3.42;;;1.60;;
17753;SDS011;8999;48.994;9.150;2022-07-31T12:40:21;1.70;;;1.30;;
17753;SDS011;8999;48.994;9.150;2022-07-31T12:42:55;2.13;;;1.50;;
17753;SDS011;8999;48.994;9.150;2022-07-31T12:45:29;6.05;;;1.58;;
17753;SDS011;8999;48.994;9.150;2022-07-31T12:48:02;5.80;;;3.25;;
17753;SDS011;8999;48.994;9.150;2022-07-31T12:50:34;4.78;;;3.33;;
17753;SDS011;8999;48.994;9.150;2022-07-31T12:53:06;1.65;;;1.27;;
17753;SDS011;8999;48.994;9.150;2022-07-31T12:55:37;2.80;;;1.40;;
17753;SDS011;8999;48.994;9.150;2022-07-31T12:58:10;3.33;;;1.00;;
17753;SDS011;8999;48.994;9.150;2022-07-31T13:00:42;1.73;;;1.05;;
17753;SDS011;8999;48.994;9.150;2022-07-31T13:03:13;1.42;;;1.13;;
17753;SDS011;8999;48.994;9.150;2022-07-31T13:05:45;4.07;;;2.83;;
17753;SDS011;8999;48.994;9.150;2022-07-31T13:08:17;3.28;;;1.33;;
17753;SDS011;8999;48.994;9.150;2022-07-31T13:10:48;4.03;;;1.70;;
17753;SDS011;8999;48.994;9.150;2022-07-31T13:13:21;3.10;;;1.30;;
17753;SDS011;8999;48.994;9.150;2022-07-31T13:15:54;2.20;;;1.10;;
17753;SDS011;8999;48.994;9.150;2022-07-31T13:18:26;1.92;;;1.10;;
17753;SDS011;8999;48.994;9.150;2022-07-31T13:20:58;3.13;;;1.40;;
17753;SDS011;8999;48.994;9.150;2022-07-31T13:23:30;1.63;;;1.20;;
17753;SDS011;8999;48.994;9.150;2022-07-31T13:26:02;2.67;;;1.30;;
17753;SDS011;8999;48.994;9.150;2022-07-31T13:28:35;2.75;;;1.20;;
17753;SDS011;8999;48.994;9.150;2022-07-31T13:31:07;2.25;;;1.58;;
17753;SDS011;8999;48.994;9.150;2022-07-31T13:33:38;2.85;;;1.27;;
17753;SDS011;8999;48.994;9.150;2022-07-31T13:36:10;1.58;;;1.35;;
17753;SDS011;8999;48.994;9.150;2022-07-31T13:38:41;1.92;;;1.17;;
17753;SDS011;8999;48.994;9.150;2022-07-31T13:41:13;1.55;;;1.10;;
17753;SDS011;8999;48.994;9.150;2022-07-31T13:43:54;2.38;;;1.50;;
17753;SDS011;8999;48.994;9.150;2022-07-31T13:46:26;4.28;;;1.40;;
17753;SDS011;8999;48.994;9.150;2022-07-31T13:48:58;1.58;;;1.20;;
17753;SDS011;8999;48.994;9.150;2022-07-31T13:51:30;3.05;;;1.33;;
17753;SDS011;8999;48.994;9.150;2022-07-31T13:54:01;3.90;;;1.20;;
17753;SDS011;8999;48.994;9.150;2022-07-31T13:56:33;1.58;;;1.30;;
17753;SDS011;8999;48.994;9.150;2022-07-31T13:59:07;2.65;;;1.55;;
17753;SDS011;8999;48.994;9.150;2022-07-31T14:01:39;2.72;;;1.45;;
17753;SDS011;8999;48.994;9.150;2022-07-31T14:04:10;2.00;;;1.30;;
17753;SDS011;8999;48.994;9.150;2022-07-31T14:06:42;2.65;;;1.13;;
17753;SDS011;8999;48.994;9.150;2022-07-31T14:09:14;1.90;;;1.35;;
17753;SDS011;8999;48.994;9.150;2022-07-31T14:11:45;1.45;;;1.13;;
17753;SDS011;8999;48.994;9.150;2022-07-31T14:14:18;3.95;;;1.30;;
17753;SDS011;8999;48.994;9.150;2022-07-31T14:16:50;1.90;;;1.40;;
17753;SDS011;8999;48.994;9.150;2022-07-31T14:19:21;1.67;;;1.40;;
17753;SDS011;8999;48.994;9.150;2022-07-31T14:21:53;1.48;;;1.38;;
17753;SDS011;8999;48.994;9.150;2022-07-31T14:24:25;2.67;;;1.23;;
17753;SDS011;8999;48.994;9.150;2022-07-31T14:26:56;2.15;;;1.30;;
17753;SDS011;8999;48.994;9.150;2022-07-31T14:29:29;1.80;;;1.13;;
17753;SDS011;8999;48.994;9.150;2022-07-31T14:32:01;2.42;;;1.48;;
17753;SDS011;8999;48.994;9.150;2022-07-31T14:34:33;4.43;;;1.70;;
17753;SDS011;8999;48.994;9.150;2022-07-31T14:37:04;1.80;;;1.55;;
17753;SDS011;8999;48.994;9.150;2022-07-31T14:39:36;3.50;;;1.60;;
17753;SDS011;8999;48.994;9.150;2022-07-31T14:42:08;3.97;;;1.40;;
17753;SDS011;8999;48.994;9.150;2022-07-31T14:44:41;2.90;;;1.38;;
17753;SDS011;8999;48.994;9.150;2022-07-31T14:47:13;3.55;;;1.92;;
17753;SDS011;8999;48.994;9.150;2022-07-31T14:49:44;3.30;;;1.60;;
17753;SDS011;8999;48.994;9.150;2022-07-31T14:52:16;2.15;;;1.50;;
17753;SDS011;8999;48.994;9.150;2022-07-31T14:54:48;2.05;;;1.52;;
17753;SDS011;8999;48.994;9.150;2022-07-31T14:57:19;3.22;;;1.50;;
17753;SDS011;8999;48.994;9.150;2022-07-31T14:59:52;4.78;;;1.55;;
17753;SDS011;8999;48.994;9.150;2022-07-31T15:02:24;2.13;;;1.27;;
17753;SDS011;8999;48.994;9.150;2022-07-31T15:04:56;3.00;;;1.67;;
17753;SDS011;8999;48.994;9.150;2022-07-31T15:07:28;2.38;;;1.30;;
17753;SDS011;8999;48.994;9.150;2022-07-31T15:09:59;2.00;;;1.50;;
17753;SDS011;8999;48.994;9.150;2022-07-31T15:12:31;4.78;;;1.58;;
17753;SDS011;8999;48.994;9.150;2022-07-31T15:15:05;1.98;;;1.50;;
17753;SDS011;8999;48.994;9.150;2022-07-31T15:17:38;5.78;;;1.52;;
17753;SDS011;8999;48.994;9.150;2022-07-31T15:20:10;5.47;;;1.85;;
17753;SDS011;8999;48.994;9.150;2022-07-31T15:22:42;3.20;;;1.83;;
17753;SDS011;8999;48.994;9.150;2022-07-31T15:25:14;4.88;;;1.63;;
17753;SDS011;8999;48.994;9.150;2022-07-31T15:27:45;2.80;;;1.60;;
17753;SDS011;8999;48.994;9.150;2022-07-31T15:30:18;1.90;;;1.42;;
17753;SDS011;8999;48.994;9.150;2022-07-31T15:32:51;2.42;;;1.65;;